createdAt,value
2023-10-02T00:01:05.007Z,100.00
2023-10-02T00:03:33.048Z,100.00
2023-10-02T00:06:00.779Z,100.00
2023-10-02T00:08:40.979Z,100.00
2023-10-02T00:11:36.029Z,100.00
2023-10-02T00:14:20.807Z,100.00
2023-10-02T00:17:04.999Z,100.00
2023-10-02T00:19:37.291Z,100.00
2023-10-02T00:22:07.928Z,100.00
2023-10-02T00:24:38.604Z,100.00
2023-10-02T00:27:09.477Z,100.00
2023-10-02T00:29:52.073Z,100.00
2023-10-02T00:32:21.103Z,100.00
2023-10-02T00:34:49.202Z,100.00
2023-10-02T00:37:17.356Z,100.00
2023-10-02T00:39:48.766Z,100.00
2023-10-02T00:42:18.109Z,100.00
2023-10-02T00:44:55.798Z,100.00
2023-10-02T00:47:46.090Z,100.00
2023-10-02T00:50:20.850Z,100.00
2023-10-02T00:52:54.058Z,100.00
2023-10-02T00:55:22.683Z,100.00
2023-10-02T00:57:53.960Z,100.00
2023-10-02T01:00:22.986Z,100.00
2023-10-02T01:02:58.696Z,100.00
2023-10-02T01:05:32.472Z,100.00
2023-10-02T01:08:01.362Z,100.00
2023-10-02T01:10:31.512Z,100.00
2023-10-02T01:13:06.892Z,100.00
2023-10-02T01:15:48.843Z,100.00
2023-10-02T01:18:28.952Z,100.00
2023-10-02T01:20:58.080Z,100.00
2023-10-02T01:23:27.475Z,100.00
2023-10-02T01:26:01.758Z,100.00
2023-10-02T01:28:34.019Z,100.00
2023-10-02T01:31:21.728Z,100.00
2023-10-02T01:33:50.674Z,100.00
2023-10-02T01:36:20.559Z,100.00
2023-10-02T01:38:48.255Z,100.00
2023-10-02T01:41:17.573Z,100.00
2023-10-02T01:43:47.250Z,100.00
2023-10-02T01:46:19.069Z,100.00
2023-10-02T01:48:49.956Z,100.00
2023-10-02T01:51:28.274Z,100.00
2023-10-02T01:53:59.600Z,100.00
2023-10-02T01:56:30.580Z,100.00
2023-10-02T01:59:09.806Z,100.00
2023-10-02T02:01:48.010Z,100.00
2023-10-02T02:04:16.204Z,100.00
2023-10-02T02:06:53.816Z,100.00
2023-10-02T02:09:24.637Z,100.00
2023-10-02T02:12:07.610Z,100.00
2023-10-02T02:14:42.563Z,100.00
2023-10-02T02:17:12.674Z,100.00
2023-10-02T02:19:49.716Z,100.00
2023-10-02T02:22:18.904Z,100.00
2023-10-02T02:24:47.621Z,100.00
2023-10-02T02:27:18.583Z,100.00
2023-10-02T02:29:46.433Z,100.00
2023-10-02T02:34:41.783Z,100.00
2023-10-02T02:37:10.080Z,100.00
2023-10-02T02:39:40.123Z,100.00
2023-10-02T02:42:11.115Z,100.00
2023-10-02T02:44:42.316Z,100.00
2023-10-02T02:47:09.519Z,100.00
2023-10-02T02:49:51.646Z,100.00
2023-10-02T02:52:26.497Z,100.00
2023-10-02T02:55:00.298Z,100.00
2023-10-02T02:57:28.815Z,100.00
2023-10-02T03:00:19.367Z,100.00
2023-10-02T03:02:49.026Z,100.00
2023-10-02T03:05:17.381Z,100.00
2023-10-02T03:07:46.968Z,100.00
2023-10-02T03:10:17.912Z,100.00
2023-10-02T03:12:47.240Z,100.00
2023-10-02T03:15:19.465Z,100.00
2023-10-02T03:17:47.656Z,100.00
2023-10-02T03:20:24.536Z,100.00
2023-10-02T03:22:55.127Z,100.00
2023-10-02T03:25:42.504Z,100.00
2023-10-02T03:28:17.769Z,100.00
2023-10-02T03:30:49.383Z,100.00
2023-10-02T03:33:21.315Z,100.00
2023-10-02T03:35:59.216Z,100.00
2023-10-02T03:38:27.465Z,100.00
2023-10-02T03:40:56.523Z,100.00
2023-10-02T03:43:35.806Z,100.00
2023-10-02T03:46:07.542Z,100.00
2023-10-02T03:48:36.420Z,100.00
2023-10-02T03:51:05.678Z,100.00
2023-10-02T03:53:35.078Z,100.00
2023-10-02T03:56:18.093Z,100.00
2023-10-02T03:58:45.939Z,100.00
2023-10-02T04:01:18.866Z,100.00
2023-10-02T04:04:07.440Z,100.00
2023-10-02T04:06:38.497Z,100.00
2023-10-02T04:09:14.719Z,100.00
2023-10-02T04:11:43.768Z,100.00
2023-10-02T04:14:19.389Z,100.00
2023-10-02T04:16:50.182Z,100.00
2023-10-02T04:19:19.632Z,100.00
2023-10-02T04:21:46.498Z,100.00
2023-10-02T04:24:14.498Z,100.00
2023-10-02T04:26:43.345Z,100.00
2023-10-02T04:29:27.745Z,100.00
2023-10-02T04:32:16.769Z,100.00
2023-10-02T04:34:57.576Z,100.00
2023-10-02T04:37:24.714Z,100.00
2023-10-02T04:40:01.672Z,100.00
2023-10-02T04:42:30.465Z,100.00
2023-10-02T04:44:59.116Z,100.00
2023-10-02T04:47:28.335Z,100.00
2023-10-02T04:50:15.042Z,100.00
2023-10-02T04:52:58.009Z,100.00
2023-10-02T04:55:29.253Z,100.00
2023-10-02T04:58:04.313Z,100.00
2023-10-02T05:00:34.978Z,100.00
2023-10-02T05:03:11.502Z,100.00
2023-10-02T05:05:43.455Z,100.00
2023-10-02T05:08:20.003Z,100.00
2023-10-02T05:10:51.112Z,100.00
2023-10-02T05:13:35.942Z,100.00
2023-10-02T05:16:15.083Z,100.00
2023-10-02T05:18:46.135Z,100.00
2023-10-02T05:21:17.796Z,100.00
2023-10-02T05:23:57.476Z,100.00
2023-10-02T05:26:40.696Z,100.00
2023-10-02T05:29:11.091Z,100.00
2023-10-02T05:31:42.242Z,100.00
2023-10-02T05:34:14.548Z,100.00
2023-10-02T05:36:56.909Z,100.00
2023-10-02T05:39:32.967Z,100.00
2023-10-02T05:42:07.191Z,100.00
2023-10-02T05:44:36.080Z,100.00
2023-10-02T05:47:10.240Z,100.00
2023-10-02T05:49:44.659Z,100.00
2023-10-02T05:52:13.186Z,100.00
2023-10-02T05:54:48.459Z,100.00
2023-10-02T05:57:18.106Z,100.00
2023-10-02T05:59:47.520Z,100.00
2023-10-02T06:02:16.042Z,100.00
2023-10-02T06:04:48.734Z,100.00
2023-10-02T06:07:37.936Z,100.00
2023-10-02T06:10:09.807Z,100.00
2023-10-02T06:12:43.749Z,100.00
2023-10-02T06:15:32.275Z,100.00
2023-10-02T06:18:00.723Z,100.00
2023-10-02T06:20:29.877Z,100.00
2023-10-02T06:23:07.632Z,100.00
2023-10-02T06:25:36.002Z,100.00
2023-10-02T06:28:20.704Z,100.00
2023-10-02T06:30:49.135Z,100.00
2023-10-02T06:33:18.701Z,100.00
2023-10-02T06:35:57.617Z,100.00
2023-10-02T06:38:25.520Z,100.00
2023-10-02T06:40:58.159Z,100.00
2023-10-02T06:43:30.730Z,100.00
2023-10-02T06:46:10.370Z,100.00
2023-10-02T06:48:40.460Z,100.00
2023-10-02T06:51:09.853Z,100.00
2023-10-02T06:53:42.098Z,100.00
2023-10-02T06:56:12.179Z,100.00
2023-10-02T06:58:50.287Z,100.00
2023-10-02T07:01:19.668Z,100.00
2023-10-02T07:03:52.263Z,100.00
2023-10-02T07:06:21.919Z,100.00
2023-10-02T07:09:09.712Z,100.00
2023-10-02T07:11:40.145Z,100.00
2023-10-02T07:14:07.923Z,100.00
2023-10-02T07:16:36.237Z,100.00
2023-10-02T07:19:05.327Z,100.00
2023-10-02T07:21:36.732Z,100.00
2023-10-02T07:24:20.351Z,100.00
2023-10-02T07:26:50.893Z,100.00
2023-10-02T07:29:19.299Z,100.00
2023-10-02T07:31:47.773Z,100.00
2023-10-02T07:34:17.312Z,100.00
2023-10-02T07:36:46.823Z,100.00
2023-10-02T07:39:34.844Z,100.00
2023-10-02T07:42:02.922Z,100.00
2023-10-02T07:44:37.914Z,100.00
2023-10-02T07:47:11.517Z,100.00
2023-10-02T07:49:40.381Z,100.00
2023-10-02T07:52:10.731Z,100.00
2023-10-02T07:54:46.563Z,100.00
2023-10-02T07:57:15.303Z,100.00
2023-10-02T07:59:45.147Z,100.00
2023-10-02T08:02:24.304Z,100.00
2023-10-02T08:04:53.194Z,100.00
2023-10-02T08:07:30.635Z,100.00
2023-10-02T08:10:11.783Z,100.00
2023-10-02T08:12:51.872Z,100.00
2023-10-02T08:15:28.416Z,100.00
2023-10-02T08:18:05.417Z,100.00
2023-10-02T08:20:38.330Z,100.00
2023-10-02T08:23:24.497Z,100.00
2023-10-02T08:26:25.232Z,100.00
2023-10-02T08:28:55.424Z,100.00
2023-10-02T08:31:28.657Z,100.00
2023-10-02T08:34:09.817Z,100.00
2023-10-02T08:36:41.962Z,100.00
2023-10-02T08:39:20.195Z,100.00
2023-10-02T08:41:52.065Z,100.00
2023-10-02T08:44:19.905Z,100.00
2023-10-02T08:46:49.268Z,100.00
2023-10-02T08:49:17.833Z,100.00
2023-10-02T08:51:51.062Z,100.00
2023-10-02T08:54:20.615Z,100.00
2023-10-02T08:57:07.253Z,100.00
2023-10-02T08:59:39.733Z,100.00
2023-10-02T09:02:10.130Z,100.00
2023-10-02T09:04:37.994Z,100.00
2023-10-02T09:07:18.057Z,100.00
2023-10-02T09:09:56.255Z,100.00
2023-10-02T09:12:24.341Z,100.00
2023-10-02T09:14:55.872Z,100.00
2023-10-02T09:17:24.618Z,100.00
2023-10-02T09:19:57.753Z,100.00
2023-10-02T09:22:27.223Z,100.00
2023-10-02T09:25:25.097Z,100.00
2023-10-02T09:27:57.795Z,100.00
2023-10-02T09:30:40.987Z,100.00
2023-10-02T09:33:20.600Z,100.00
2023-10-02T09:36:17.989Z,100.00
2023-10-02T09:38:52.379Z,100.00
2023-10-02T09:41:24.719Z,100.00
2023-10-02T09:43:53.730Z,100.00
2023-10-02T09:46:24.039Z,100.00
2023-10-02T09:49:05.216Z,100.00
2023-10-02T09:51:46.472Z,100.00
2023-10-02T09:54:21.969Z,100.00
2023-10-02T09:57:06.059Z,100.00
2023-10-02T09:59:38.980Z,100.00
2023-10-02T10:02:31.238Z,100.00
2023-10-02T10:05:20.740Z,100.00
2023-10-02T10:08:20.344Z,100.00
2023-10-02T10:10:50.401Z,100.00
2023-10-02T10:13:38.079Z,100.00
2023-10-02T10:16:37.582Z,100.00
2023-10-02T10:19:32.130Z,100.00
2023-10-02T10:22:02.128Z,100.00
2023-10-02T10:24:33.233Z,100.00
2023-10-02T10:27:02.223Z,100.00
2023-10-02T10:29:42.522Z,100.00
2023-10-02T10:32:25.213Z,100.00
2023-10-02T10:35:14.498Z,100.00
2023-10-02T10:37:43.079Z,100.00
2023-10-02T10:40:24.634Z,100.00
2023-10-02T10:43:00.496Z,100.00
2023-10-02T10:45:34.543Z,100.00
2023-10-02T10:48:03.036Z,100.00
2023-10-02T10:50:31.656Z,100.00
2023-10-02T10:53:23.512Z,100.00
2023-10-02T10:55:56.256Z,100.00
2023-10-02T10:58:32.649Z,100.00
2023-10-02T11:01:03.692Z,100.00
2023-10-02T11:03:32.695Z,100.00
2023-10-02T11:06:04.255Z,100.00
2023-10-02T11:08:34.455Z,100.00
2023-10-02T11:11:03.308Z,100.00
2023-10-02T11:13:31.453Z,100.00
2023-10-02T11:18:29.411Z,100.00
2023-10-02T11:20:59.032Z,100.00
2023-10-02T11:23:38.790Z,100.00
2023-10-02T11:26:12.383Z,100.00
2023-10-02T11:28:42.045Z,100.00
2023-10-02T11:31:30.807Z,100.00
2023-10-02T11:34:20.163Z,100.00
2023-10-02T11:36:55.276Z,100.00
2023-10-02T11:39:28.455Z,100.00
2023-10-02T11:41:56.612Z,100.00
2023-10-02T11:44:24.566Z,100.00
2023-10-02T11:46:52.234Z,100.00
2023-10-02T11:49:21.293Z,100.00
2023-10-02T11:51:48.878Z,100.00
2023-10-02T11:54:18.581Z,100.00
2023-10-02T11:56:48.066Z,100.00
2023-10-02T11:59:16.607Z,100.00
2023-10-02T12:01:44.645Z,100.00
2023-10-02T12:04:12.799Z,100.00
2023-10-02T12:06:42.161Z,100.00
2023-10-02T12:09:18.760Z,100.00
2023-10-02T12:11:46.815Z,100.00
2023-10-02T12:14:14.667Z,99.58
2023-10-02T12:16:42.930Z,95.24
2023-10-02T12:19:11.755Z,98.11
2023-10-02T12:21:46.301Z,96.77
2023-10-02T12:24:16.227Z,95.44
2023-10-02T12:26:45.077Z,93.58
2023-10-02T12:29:13.104Z,89.64
2023-10-02T12:31:41.447Z,92.53
2023-10-02T12:34:09.359Z,87.60
2023-10-02T12:36:36.973Z,87.17
2023-10-02T12:39:10.873Z,81.07
2023-10-02T12:41:38.500Z,78.31
2023-10-02T12:44:08.991Z,68.29
2023-10-02T12:46:44.321Z,59.77
2023-10-02T12:49:14.277Z,54.51
2023-10-02T12:51:42.681Z,52.50
2023-10-02T12:54:12.927Z,51.35
2023-10-02T12:56:41.137Z,47.88
2023-10-02T12:59:10.607Z,47.61
2023-10-02T13:01:38.252Z,45.87
2023-10-02T13:04:06.315Z,42.91
2023-10-02T13:06:34.708Z,41.86
2023-10-02T13:09:10.010Z,42.04
2023-10-02T13:11:40.847Z,43.41
2023-10-02T13:14:10.726Z,43.91
2023-10-02T13:16:39.236Z,44.92
2023-10-02T13:19:10.480Z,41.20
2023-10-02T13:21:39.132Z,40.54
2023-10-02T13:24:07.912Z,39.26
2023-10-02T13:26:37.620Z,37.64
2023-10-02T13:29:07.164Z,37.28
2023-10-02T13:31:34.854Z,36.40
2023-10-02T13:34:06.293Z,36.86
2023-10-02T13:36:34.527Z,36.83
2023-10-02T13:39:06.690Z,36.01
2023-10-02T13:41:36.117Z,37.39
2023-10-02T13:44:05.168Z,36.88
2023-10-02T13:46:38.190Z,36.07
2023-10-02T13:49:06.292Z,36.74
2023-10-02T13:51:34.081Z,36.28
2023-10-02T13:54:02.613Z,37.19
2023-10-02T13:56:34.507Z,37.45
2023-10-02T13:59:03.827Z,37.58
2023-10-02T14:01:34.111Z,37.09
2023-10-02T14:04:07.970Z,36.15
2023-10-02T14:06:36.731Z,36.64
2023-10-02T14:09:11.767Z,37.11
2023-10-02T14:11:41.517Z,35.89
2023-10-02T14:14:09.599Z,35.22
2023-10-02T14:16:37.372Z,35.56
2023-10-02T14:19:07.874Z,34.76
2023-10-02T14:21:36.049Z,35.00
2023-10-02T14:24:05.942Z,35.34
2023-10-02T14:26:33.704Z,35.54
2023-10-02T14:29:02.020Z,35.89
2023-10-02T14:31:32.560Z,36.89
2023-10-02T14:34:01.153Z,37.29
2023-10-02T14:36:31.093Z,38.44
2023-10-02T14:39:00.031Z,39.16
2023-10-02T14:41:29.266Z,39.84
2023-10-02T14:43:57.900Z,40.98
2023-10-02T14:46:25.867Z,42.83
2023-10-02T14:48:54.639Z,43.16
2023-10-02T14:51:23.641Z,43.63
2023-10-02T14:53:52.943Z,44.66
2023-10-02T14:56:22.180Z,46.25
2023-10-02T14:58:50.321Z,47.40
2023-10-02T15:01:20.239Z,48.57
2023-10-02T15:03:49.441Z,51.14
2023-10-02T15:06:17.759Z,55.15
2023-10-02T15:08:45.384Z,58.15
2023-10-02T15:11:17.101Z,62.50
2023-10-02T15:13:46.496Z,64.59
2023-10-02T15:16:15.869Z,67.84
2023-10-02T15:18:44.980Z,70.70
2023-10-02T15:21:13.091Z,75.15
2023-10-02T15:23:41.868Z,79.61
2023-10-02T15:26:12.272Z,86.21
2023-10-02T15:28:41.547Z,88.83
2023-10-02T15:31:09.356Z,91.56
2023-10-02T15:33:38.109Z,93.63
2023-10-02T15:36:06.150Z,95.62
2023-10-02T15:38:33.792Z,95.14
2023-10-02T15:41:02.740Z,99.64
2023-10-02T15:43:31.099Z,100.00
2023-10-02T15:46:00.490Z,100.00
2023-10-02T15:48:28.356Z,100.00
2023-10-02T15:50:56.248Z,100.00
2023-10-02T15:53:25.363Z,100.00
2023-10-02T15:55:53.644Z,100.00
2023-10-02T15:58:22.707Z,100.00
2023-10-02T16:00:52.527Z,100.00
2023-10-02T16:03:21.858Z,100.00
2023-10-02T16:05:49.564Z,100.00
2023-10-02T16:08:17.240Z,100.00
2023-10-02T16:10:45.375Z,100.00
2023-10-02T16:13:12.985Z,100.00
2023-10-02T16:15:40.797Z,100.00
2023-10-02T16:18:09.550Z,100.00
2023-10-02T16:20:40.483Z,100.00
2023-10-02T16:23:08.479Z,100.00
2023-10-02T16:25:36.089Z,100.00
2023-10-02T16:28:06.446Z,100.00
2023-10-02T16:30:37.342Z,100.00
2023-10-02T16:33:07.079Z,100.00
2023-10-02T16:35:38.362Z,100.00
2023-10-02T16:38:12.086Z,100.00
2023-10-02T16:40:39.843Z,100.00
2023-10-02T16:43:07.598Z,100.00
2023-10-02T16:45:35.292Z,100.00
2023-10-02T16:48:04.729Z,100.00
2023-10-02T16:50:32.677Z,100.00
2023-10-02T16:53:02.409Z,100.00
2023-10-02T16:55:31.154Z,100.00
2023-10-02T16:57:59.189Z,100.00
2023-10-02T17:00:29.076Z,100.00
2023-10-02T17:02:57.436Z,100.00
2023-10-02T17:05:26.026Z,100.00
2023-10-02T17:07:55.178Z,100.00
2023-10-02T17:10:24.973Z,100.00
2023-10-02T17:12:58.155Z,100.00
2023-10-02T17:15:27.088Z,100.00
2023-10-02T17:17:55.484Z,100.00
2023-10-02T17:20:26.876Z,100.00
2023-10-02T17:22:54.867Z,100.00
2023-10-02T17:25:27.319Z,100.00
2023-10-02T17:27:57.169Z,100.00
2023-10-02T17:30:25.853Z,100.00
2023-10-02T17:32:54.906Z,100.00
2023-10-02T17:35:22.822Z,100.00
2023-10-02T17:37:50.773Z,100.00
2023-10-02T17:40:21.210Z,100.00
2023-10-02T17:42:50.350Z,100.00
2023-10-02T17:45:18.307Z,100.00
2023-10-02T17:47:46.779Z,100.00
2023-10-02T17:50:16.110Z,100.00
2023-10-02T17:52:43.846Z,100.00
2023-10-02T17:55:11.855Z,100.00
2023-10-02T17:57:39.645Z,100.00
2023-10-02T18:00:14.045Z,100.00
2023-10-02T18:02:42.594Z,100.00
2023-10-02T18:05:11.037Z,100.00
2023-10-02T18:07:39.190Z,100.00
2023-10-02T18:10:07.426Z,100.00
2023-10-02T18:12:36.321Z,100.00
2023-10-02T18:15:05.596Z,100.00
2023-10-02T18:17:34.687Z,100.00
2023-10-02T18:20:03.147Z,100.00
2023-10-02T18:22:31.811Z,100.00
2023-10-02T18:25:02.069Z,100.00
2023-10-02T18:27:29.664Z,100.00
2023-10-02T18:29:58.116Z,100.00
2023-10-02T18:32:26.223Z,100.00
2023-10-02T18:34:55.436Z,100.00
2023-10-02T18:37:23.595Z,100.00
2023-10-02T18:39:51.237Z,100.00
2023-10-02T18:42:19.897Z,100.00
2023-10-02T18:44:47.827Z,100.00
2023-10-02T18:47:20.414Z,100.00
2023-10-02T18:49:49.030Z,100.00
2023-10-02T18:52:17.997Z,100.00
2023-10-02T18:54:45.726Z,100.00
2023-10-02T18:57:14.550Z,100.00
2023-10-02T18:59:42.282Z,100.00
2023-10-02T19:02:10.328Z,100.00
2023-10-02T19:04:38.044Z,100.00
2023-10-02T19:07:05.807Z,100.00
2023-10-02T19:09:35.006Z,100.00
2023-10-02T19:12:02.788Z,100.00
2023-10-02T19:14:30.577Z,100.00
2023-10-02T19:16:58.266Z,100.00
2023-10-02T19:19:25.913Z,100.00
2023-10-02T19:21:53.964Z,100.00
2023-10-02T19:24:22.693Z,100.00
2023-10-02T19:26:53.233Z,100.00
2023-10-02T19:29:20.861Z,100.00
2023-10-02T19:31:49.831Z,100.00
2023-10-02T19:34:19.749Z,100.00
2023-10-02T19:36:47.428Z,100.00
2023-10-02T19:39:15.057Z,100.00
2023-10-02T19:41:42.846Z,100.00
2023-10-02T19:44:12.426Z,100.00
2023-10-02T19:46:40.591Z,100.00
2023-10-02T19:49:08.894Z,100.00
2023-10-02T19:51:37.046Z,100.00
2023-10-02T19:54:05.193Z,100.00
2023-10-02T19:56:32.930Z,100.00
2023-10-02T19:59:00.763Z,100.00
2023-10-02T20:01:30.046Z,100.00
2023-10-02T20:03:58.406Z,100.00
2023-10-02T20:06:26.319Z,100.00
2023-10-02T20:08:55.971Z,100.00
2023-10-02T20:11:24.136Z,100.00
2023-10-02T20:13:51.911Z,100.00
2023-10-02T20:16:19.774Z,100.00
2023-10-02T20:18:48.867Z,100.00
2023-10-02T20:21:18.232Z,100.00
2023-10-02T20:23:52.883Z,100.00
2023-10-02T20:26:22.319Z,100.00
2023-10-02T20:28:50.683Z,100.00
2023-10-02T20:31:18.958Z,100.00
2023-10-02T20:33:48.098Z,100.00
2023-10-02T20:36:15.880Z,100.00
2023-10-02T20:38:44.350Z,100.00
2023-10-02T20:41:12.062Z,100.00
2023-10-02T20:43:39.690Z,100.00
2023-10-02T20:46:07.374Z,100.00
2023-10-02T20:48:39.435Z,100.00
2023-10-02T20:51:08.500Z,100.00
2023-10-02T20:53:36.157Z,100.00
2023-10-02T20:56:04.031Z,100.00
2023-10-02T20:58:31.623Z,100.00
2023-10-02T21:01:00.969Z,100.00
2023-10-02T21:03:28.681Z,100.00
2023-10-02T21:05:56.462Z,100.00
2023-10-02T21:08:25.462Z,100.00
2023-10-02T21:10:53.486Z,100.00
2023-10-02T21:13:21.110Z,100.00
2023-10-02T21:15:48.982Z,100.00
2023-10-02T21:18:19.757Z,100.00
2023-10-02T21:20:52.598Z,100.00
2023-10-02T21:23:21.266Z,100.00
2023-10-02T21:25:50.550Z,100.00
2023-10-02T21:28:18.324Z,100.00
2023-10-02T21:30:47.780Z,100.00
2023-10-02T21:33:15.674Z,100.00
2023-10-02T21:35:43.538Z,100.00
2023-10-02T21:38:11.711Z,100.00
2023-10-02T21:40:39.320Z,100.00
2023-10-02T21:43:08.368Z,100.00
2023-10-02T21:45:36.002Z,100.00
2023-10-02T21:48:04.991Z,100.00
2023-10-02T21:50:32.817Z,100.00
2023-10-02T21:53:00.701Z,100.00
2023-10-02T21:55:29.103Z,100.00
2023-10-02T21:57:58.480Z,100.00
2023-10-02T22:00:36.298Z,100.00
2023-10-02T22:03:07.641Z,100.00
2023-10-02T22:05:35.583Z,100.00
2023-10-02T22:08:03.544Z,100.00
2023-10-02T22:10:31.626Z,100.00
2023-10-02T22:12:59.335Z,100.00
2023-10-02T22:15:30.416Z,100.00
2023-10-02T22:17:58.382Z,100.00
2023-10-02T22:20:26.810Z,100.00
2023-10-02T22:22:54.623Z,100.00
2023-10-02T22:25:22.348Z,100.00
2023-10-02T22:27:50.411Z,100.00
2023-10-02T22:30:19.977Z,100.00
2023-10-02T22:32:49.849Z,100.00
2023-10-02T22:35:20.186Z,100.00
2023-10-02T22:37:48.438Z,100.00
2023-10-02T22:40:21.160Z,100.00
2023-10-02T22:42:51.484Z,100.00
2023-10-02T22:45:20.199Z,100.00
2023-10-02T22:47:49.390Z,100.00
2023-10-02T22:50:17.738Z,100.00
2023-10-02T22:52:46.942Z,100.00
2023-10-02T22:55:14.809Z,100.00
2023-10-02T22:57:42.422Z,100.00
2023-10-02T23:00:16.807Z,100.00
2023-10-02T23:02:45.670Z,100.00
2023-10-02T23:05:15.030Z,100.00
2023-10-02T23:07:45.117Z,100.00
2023-10-02T23:10:16.476Z,100.00
2023-10-02T23:12:45.225Z,100.00
2023-10-02T23:15:13.501Z,100.00
2023-10-02T23:17:41.385Z,100.00
2023-10-02T23:20:14.072Z,100.00
2023-10-02T23:22:44.070Z,100.00
2023-10-02T23:25:14.170Z,100.00
2023-10-02T23:27:42.077Z,100.00
2023-10-02T23:30:11.563Z,100.00
2023-10-02T23:32:39.530Z,100.00
2023-10-02T23:35:08.417Z,100.00
2023-10-02T23:37:35.990Z,100.00
2023-10-02T23:40:12.786Z,100.00
2023-10-02T23:42:41.256Z,100.00
2023-10-02T23:45:15.439Z,100.00
2023-10-02T23:47:45.277Z,100.00
2023-10-02T23:50:17.634Z,100.00
2023-10-02T23:52:47.562Z,100.00
2023-10-02T23:55:24.368Z,100.00
2023-10-02T23:57:53.876Z,100.00
